Coral Favia — PHKM — position and weather

sailwx.info

Track history (hours):
 
Tides and Currents Weather Stations Pressure Air Temp Water Temp Dewpoint Dewpoint Depression Visibility Wind Speed Wind Dir Waves Ship Positions

Coral Favia

Last reported at 2014-Jul-23 10:18 UTC. Time now 2014-Jul-24 03:58 UTC.
Position N 35°36' W 003°30'.

Length 100 m; beam 17 m.

Type: Tanker. MMSI: 244627000.

Date/timePositionNaut miles runAvg speedWind from/ knotsBaromVisibWave heightAir tempDewpointWater temp
2014-Jul-23 10:18N 35°36' W 003°30'9113.4
2014-Jul-23 03:32N 35°57' W 005°19'16113.1
2014-Jul-22 15:14N 36°24' W 008°35'811.9
2014-Jul-22 14:33N 36°21' W 008°45'1413.9
2014-Jul-22 13:33N 36°26' W 009°01'1413.9
2014-Jul-22 12:33N 36°30' W 009°18'2013.9
2014-Jul-22 11:05N 36°44' W 009°36'713.6
2014-Jul-22 10:33N 36°51' W 009°39'1413.5
2014-Jul-22 09:33N 37°04' W 009°43'2813.7
2014-Jul-22 07:32N 37°31' W 009°51'1313.5
2014-Jul-22 06:33N 37°44' W 009°54'1313.4
2014-Jul-22 05:33N 37°57' W 009°58'1413.7
2014-Jul-22 04:33N 38°10' W 010°02'1413.9
2014-Jul-22 03:32N 38°24' W 010°06'38010.0
2014-Jul-20 13:28N 43°44' W 005°33'109 4.7
2014-Jul-19 14:32N 43°22' W 003°06'0 0.0
2014-Jul-19 13:32N 43°22' W 003°06'0 0.0
2014-Jul-19 12:32N 43°22' W 003°06'0 0.0
2014-Jul-19 11:32N 43°22' W 003°06'0 0.0
2014-Jul-19 10:32N 43°22' W 003°06'0 0.0
2014-Jul-19 09:32N 43°22' W 003°06'0 0.0
2014-Jul-19 08:32N 43°22' W 003°06'5 4.8
2014-Jul-19 07:33N 43°26' W 003°08'1211.9
2014-Jul-19 06:33N 43°36' W 003°18'1212.1
2014-Jul-19 05:33N 43°40' W 003°34'429 8.6
2014-Jul-17 03:32N 38°19' W 009°50'1111.1
2014-Jul-17 02:31N 38°08' W 009°47'1111.1
2014-Jul-17 01:33N 37°58' W 009°44'1111.1
2014-Jul-17 00:33N 37°47' W 009°41'1110.8
2014-Jul-16 23:33N 37°36' W 009°37'1110.9
2014-Jul-16 22:33N 37°26' W 009°34'1211.5
2014-Jul-16 21:33N 37°14' W 009°31'1212.2
2014-Jul-16 20:34N 37°03' W 009°28'1212.0
2014-Jul-16 19:33N 36°51' W 009°24'1211.9
2014-Jul-16 18:33N 36°42' W 009°14'1711.6
2014-Jul-16 17:03N 36°38' W 008°53'611.9
2014-Jul-16 16:33N 36°39' W 008°46'1211.9
2014-Jul-16 15:33N 36°40' W 008°31'1211.9
2014-Jul-16 14:33N 36°41' W 008°16'1211.7
2014-Jul-16 13:33N 36°42' W 008°02'1212.1
2014-Jul-16 12:33N 36°44' W 007°47'1212.2
2014-Jul-16 11:33N 36°45' W 007°31'33 2.0
2014-Jul-15 19:25N 36°48' W 006°51'0 0.0
2014-Jul-13 23:25N 36°49' W 006°51'0 0.0
2014-Jul-13 19:16N 36°49' W 006°51'0 0.0
2014-Jul-13 18:28N 36°49' W 006°51'0 0.0
2014-Jul-13 15:31N 36°49' W 006°51'0 0.0
2014-Jul-13 13:31N 36°49' W 006°51'0 0.0
2014-Jul-13 12:22N 36°49' W 006°51'  
Track history (hours):
 
Tides and Currents Weather Stations Pressure Air Temp Water Temp Dewpoint Dewpoint Depression Visibility Wind Speed Wind Dir Waves Ship Positions

Coral Favia

Last reported at 2014-Jul-23 10:18 UTC. Time now 2014-Jul-24 03:58 UTC.
Position N 35°36' W 003°30'.

Length 100 m; beam 17 m.

Type: Tanker. MMSI: 244627000.

Date/timePositionNaut miles runAvg speedWind from/ knotsBaromVisibWave heightAir tempDewpointWater temp
2014-Jul-23 10:18N 35°36' W 003°30'9113.4
2014-Jul-23 03:32N 35°57' W 005°19'16113.1
2014-Jul-22 15:14N 36°24' W 008°35'811.9
2014-Jul-22 14:33N 36°21' W 008°45'1413.9
2014-Jul-22 13:33N 36°26' W 009°01'1413.9
2014-Jul-22 12:33N 36°30' W 009°18'2013.9
2014-Jul-22 11:05N 36°44' W 009°36'713.6
2014-Jul-22 10:33N 36°51' W 009°39'1413.5
2014-Jul-22 09:33N 37°04' W 009°43'2813.7
2014-Jul-22 07:32N 37°31' W 009°51'1313.5
2014-Jul-22 06:33N 37°44' W 009°54'1313.4
2014-Jul-22 05:33N 37°57' W 009°58'1413.7
2014-Jul-22 04:33N 38°10' W 010°02'1413.9
2014-Jul-22 03:32N 38°24' W 010°06'38010.0
2014-Jul-20 13:28N 43°44' W 005°33'109 4.7
2014-Jul-19 14:32N 43°22' W 003°06'0 0.0
2014-Jul-19 13:32N 43°22' W 003°06'0 0.0
2014-Jul-19 12:32N 43°22' W 003°06'0 0.0
2014-Jul-19 11:32N 43°22' W 003°06'0 0.0
2014-Jul-19 10:32N 43°22' W 003°06'0 0.0
2014-Jul-19 09:32N 43°22' W 003°06'0 0.0
2014-Jul-19 08:32N 43°22' W 003°06'5 4.8
2014-Jul-19 07:33N 43°26' W 003°08'1211.9
2014-Jul-19 06:33N 43°36' W 003°18'1212.1
2014-Jul-19 05:33N 43°40' W 003°34'429 8.6
2014-Jul-17 03:32N 38°19' W 009°50'1111.1
2014-Jul-17 02:31N 38°08' W 009°47'1111.1
2014-Jul-17 01:33N 37°58' W 009°44'1111.1
2014-Jul-17 00:33N 37°47' W 009°41'1110.8
2014-Jul-16 23:33N 37°36' W 009°37'1110.9
2014-Jul-16 22:33N 37°26' W 009°34'1211.5
2014-Jul-16 21:33N 37°14' W 009°31'1212.2
2014-Jul-16 20:34N 37°03' W 009°28'1212.0
2014-Jul-16 19:33N 36°51' W 009°24'1211.9
2014-Jul-16 18:33N 36°42' W 009°14'1711.6
2014-Jul-16 17:03N 36°38' W 008°53'611.9
2014-Jul-16 16:33N 36°39' W 008°46'1211.9
2014-Jul-16 15:33N 36°40' W 008°31'1211.9
2014-Jul-16 14:33N 36°41' W 008°16'1211.7
2014-Jul-16 13:33N 36°42' W 008°02'1212.1
2014-Jul-16 12:33N 36°44' W 007°47'1212.2
2014-Jul-16 11:33N 36°45' W 007°31'33 2.0
2014-Jul-15 19:25N 36°48' W 006°51'0 0.0
2014-Jul-13 23:25N 36°49' W 006°51'0 0.0
2014-Jul-13 19:16N 36°49' W 006°51'0 0.0
2014-Jul-13 18:28N 36°49' W 006°51'0 0.0
2014-Jul-13 15:31N 36°49' W 006°51'0 0.0
2014-Jul-13 13:31N 36°49' W 006°51'0 0.0
2014-Jul-13 12:22N 36°49' W 006°51'  

Dump ship's entire track history